Berlin, Michigan
Current Conditions -  °F | °C
As of 12:33 AM on Monday 20 Oct 2014 (Local Time) from KD95 Reporting Station
Overcast Overcast  
Wind Chill: 43°   Ceiling: 9000
Heat Index: 47°   Visibility: 10mi
Dew Point: 36°   Wind: 7mph
Humidity: 67%   Direction: 210°SSW
Pressure: 29.95"   Gusts: NA
Location:  42.9384°N, 82.9255°W
Report Text: KD95 200433Z AUTO 21006KT 10SM OVC090 08/02 A2995 RMK AO2 T00820023
Loading
Personal Weather Stations






























Interactive Weather Map New forecast layout! Learn more

10-Day Weather Forecast

Advertisements
Track Severe Weather on mobile